ブリスベン の空港の天気 - METARとTAF

ブリスベン空港 ( YBBN / BNE ) - オーストラリア クイーンズランド州ブリスベン
飛行場実況気象(Metar)
観測時間01/24 22:00 AEST (01/24 12:00 UTC)
風向・風速北 8m/s
視程10km以上
天気現象
なし
気温27℃
湿度79%
気圧1011hPa
METARYBBN 241200Z 01015KT CAVOK 27/23 Q1011 FM1300 36012KT 9999 SCT015
過去の天気等 Google飛行場航空写真 Wunderground天気予報

過去48時間のMETAR

飛行場予報(TAF)
発表時間: 1/24 21:13 AEST (1/24 11:13 UTC)
予報対象時間: 24日22時 AEST ~ 26日4時 AEST
風向・風速北 6m/s
視程10km以上
全天の4割程度の雲 雲底高度 460m
25日9時 AEST から
風向・風速北 7m/s
視程10km以上
全天の4割程度の雲 雲底高度 610m
25日13時 AEST から
風向・風速北北東 8m/s
視程10km以上
全天の4割程度の雲 雲底高度 760m
25日20時 AEST から
風向・風速北 5m/s
視程10km以上
全天の4割程度の雲 雲底高度 460m
25日1時 AEST ~ 25日8時 AEST に一時的に
視程10km以上
全天の8割程度の雲 雲底高度 370m
TAF YBBN 241113Z 2412/2518 36012KT 9999 SCT015
FM242300 01014KT 9999 SCT020
FM250300 02016KT 9999 SCT025
FM251000 01010KT 9999 SCT015
TEMPO 2415/2422 9999 BKN012